Time;durP1;ratioP1;P1;durP2;ratioP2;P2;SDS_P1;SDS_P2;PMS_P1;PMS_P2;Temp;Humidity;BMP_temperature;BMP_pressure;BME280_temperature;BME280_humidity;BME280_pressure;Samples;Min_cycle;Max_cycle;Signal;HPM_P1;HPM_P2
2021/04/23 00:01:07;;;;;;;13.70;7.10;;;6.10;99.90;;;;;;5030193;28;20200;-37
2021/04/23 00:03:38;;;;;;;13.88;7.47;;;6.20;99.90;;;;;;5032434;28;20227;-35
2021/04/23 00:06:08;;;;;;;13.27;8.57;;;6.10;99.90;;;;;;5033240;28;20196;-37
2021/04/23 00:08:35;;;;;;;11.32;8.18;;;6.20;99.90;;;;;;5026260;28;20203;-36
2021/04/23 00:11:05;;;;;;;14.65;7.65;;;6.20;99.90;;;;;;5032392;28;20291;-35
2021/04/23 00:13:33;;;;;;;18.23;8.43;;;6.30;99.90;;;;;;5031247;28;20227;-38
2021/04/23 00:16:00;;;;;;;18.05;9.68;;;6.30;99.90;;;;;;5032899;28;20278;-36
2021/04/23 00:18:27;;;;;;;10.32;8.02;;;6.40;99.90;;;;;;5031837;28;20705;-38
2021/04/23 00:20:54;;;;;;;14.25;7.63;;;6.40;99.90;;;;;;5032416;28;20228;-36
2021/04/23 00:23:21;;;;;;;14.15;8.10;;;6.30;99.90;;;;;;5032303;28;20727;-38
2021/04/23 00:26:08;;;;;;;13.10;7.75;;;6.50;99.90;;;;;;5032037;28;20257;-37
2021/04/23 00:28:36;;;;;;;15.07;8.10;;;6.40;99.90;;;;;;5031886;28;20210;-38
2021/04/23 00:31:06;;;;;;;11.38;6.70;;;6.40;99.90;;;;;;5032007;28;20222;-36
2021/04/23 00:33:34;;;;;;;13.98;7.13;;;6.60;99.90;;;;;;5031336;28;20220;-37
2021/04/23 00:36:03;;;;;;;16.45;7.90;;;6.40;99.90;;;;;;5031893;28;20283;-38
2021/04/23 00:38:31;;;;;;;11.93;7.25;;;6.40;99.90;;;;;;5032096;28;20278;-35
2021/04/23 00:41:00;;;;;;;13.63;7.43;;;6.50;99.90;;;;;;5032106;28;20199;-38
2021/04/23 00:43:32;;;;;;;13.00;8.57;;;6.50;99.90;;;;;;5031404;28;20654;-36
2021/04/23 00:46:07;;;;;;;17.52;8.85;;;6.40;99.90;;;;;;5030892;28;20195;-37
2021/04/23 00:48:36;;;;;;;11.02;7.38;;;6.30;99.90;;;;;;5031744;28;20231;-37
2021/04/23 00:51:06;;;;;;;10.95;7.97;;;6.30;99.90;;;;;;5031861;28;20199;-35
2021/04/23 00:53:37;;;;;;;12.00;7.65;;;6.40;99.90;;;;;;5030535;28;20224;-35
2021/04/23 00:56:08;;;;;;;14.25;8.68;;;6.50;99.90;;;;;;5030189;28;20199;-36
2021/04/23 00:58:37;;;;;;;13.40;8.05;;;6.50;99.90;;;;;;5031467;28;20202;-36
2021/04/23 01:01:07;;;;;;;12.02;7.63;;;6.40;99.90;;;;;;5031582;28;20206;-35
2021/04/23 01:03:36;;;;;;;11.77;7.88;;;6.50;99.90;;;;;;5031030;28;20705;-36
2021/04/23 01:06:10;;;;;;;12.38;7.72;;;6.40;99.90;;;;;;5031906;28;20192;-36
2021/04/23 01:08:37;;;;;;;14.35;7.75;;;6.50;99.90;;;;;;5031209;28;20558;-36
2021/04/23 01:11:04;;;;;;;13.63;7.18;;;6.60;99.90;;;;;;5031007;28;20215;-35
2021/04/23 01:13:32;;;;;;;13.23;8.48;;;6.70;99.90;;;;;;5016780;28;20247;-34
2021/04/23 01:16:01;;;;;;;15.35;8.32;;;6.50;99.90;;;;;;5031238;28;20238;-35
2021/04/23 01:18:28;;;;;;;13.40;7.43;;;6.50;99.90;;;;;;5031183;28;20339;-35
2021/04/23 01:21:03;;;;;;;13.68;7.72;;;6.50;99.90;;;;;;5030969;28;20594;-38
2021/04/23 01:23:30;;;;;;;11.65;7.95;;;6.60;99.90;;;;;;5031483;28;20215;-36
2021/04/23 01:25:57;;;;;;;12.05;7.55;;;6.60;99.90;;;;;;5031606;28;20708;-37
2021/04/23 01:28:24;;;;;;;9.90;7.28;;;6.50;99.90;;;;;;5030826;28;20196;-37
2021/04/23 01:30:51;;;;;;;14.52;7.90;;;6.60;99.90;;;;;;5030682;28;20558;-35
2021/04/23 01:33:18;;;;;;;9.55;7.43;;;6.70;99.90;;;;;;5030877;28;20314;-37
2021/04/23 01:35:45;;;;;;;13.60;7.68;;;6.70;99.90;;;;;;5030448;28;20280;-36
2021/04/23 01:38:13;;;;;;;10.93;6.88;;;6.60;99.90;;;;;;5031130;28;20200;-34
2021/04/23 01:40:42;;;;;;;15.10;7.80;;;6.50;99.90;;;;;;5030098;28;20706;-35
2021/04/23 01:43:09;;;;;;;13.60;8.27;;;6.50;99.90;;;;;;5030874;28;20300;-35
2021/04/23 01:45:36;;;;;;;10.68;7.05;;;6.50;99.90;;;;;;5030726;28;20199;-35
2021/04/23 01:48:04;;;;;;;16.35;7.68;;;6.60;99.90;;;;;;5030813;28;20196;-37
2021/04/23 01:50:32;;;;;;;20.08;9.05;;;6.50;99.90;;;;;;5030453;28;20657;-37
2021/04/23 01:52:59;;;;;;;14.25;7.78;;;6.60;99.90;;;;;;5030878;28;20231;-35
2021/04/23 01:55:27;;;;;;;22.27;9.57;;;6.70;99.90;;;;;;5030834;28;20238;-35
2021/04/23 01:57:54;;;;;;;16.48;9.68;;;6.60;99.90;;;;;;5029234;28;20196;-37
2021/04/23 02:00:24;;;;;;;12.93;8.77;;;6.40;99.90;;;;;;5011575;28;20730;-36
2021/04/23 02:02:52;;;;;;;14.57;9.40;;;6.40;99.90;;;;;;5027817;28;20220;-35
2021/04/23 02:05:21;;;;;;;13.35;7.97;;;6.40;99.90;;;;;;5030541;28;20192;-37
2021/04/23 02:07:48;;;;;;;13.15;9.32;;;6.50;99.90;;;;;;5030170;28;20206;-37
2021/04/23 02:10:18;;;;;;;14.23;8.60;;;6.40;99.90;;;;;;5029183;28;20667;-38
2021/04/23 02:12:46;;;;;;;12.02;7.40;;;6.40;99.90;;;;;;5029888;28;20212;-38
2021/04/23 02:15:16;;;;;;;12.95;7.55;;;6.50;99.90;;;;;;5030314;28;20235;-35
2021/04/23 02:17:44;;;;;;;15.15;7.68;;;6.40;99.90;;;;;;5030124;28;20557;-36
2021/04/23 02:20:15;;;;;;;15.18;8.13;;;6.50;99.90;;;;;;5029870;28;20212;-37
2021/04/23 02:22:42;;;;;;;18.45;8.70;;;6.40;99.90;;;;;;5022080;28;20296;-35
2021/04/23 02:25:10;;;;;;;19.55;8.15;;;6.40;99.90;;;;;;5030231;28;20659;-36
2021/04/23 02:27:46;;;;;;;14.60;8.45;;;6.60;99.90;;;;;;5010490;28;20212;-35
2021/04/23 02:30:17;;;;;;;14.63;8.10;;;6.50;99.90;;;;;;5029449;28;20196;-37
2021/04/23 02:32:44;;;;;;;17.83;8.85;;;6.30;99.90;;;;;;5029575;28;20303;-34
2021/04/23 02:35:13;;;;;;;15.18;7.35;;;6.40;99.90;;;;;;5030111;28;20223;-35
2021/04/23 02:37:40;;;;;;;14.10;8.65;;;6.50;99.90;;;;;;5029156;28;20216;-39
2021/04/23 02:40:10;;;;;;;27.13;10.32;;;6.20;99.90;;;;;;5027281;28;20352;-38
2021/04/23 02:42:38;;;;;;;18.48;8.90;;;6.30;99.90;;;;;;5029795;28;20264;-40
2021/04/23 02:45:08;;;;;;;15.65;9.48;;;6.30;99.90;;;;;;5028907;28;20252;-38
2021/04/23 02:47:36;;;;;;;13.85;8.65;;;6.30;99.90;;;;;;5029949;28;20192;-39
2021/04/23 02:50:03;;;;;;;15.98;8.23;;;6.40;99.90;;;;;;5029679;28;20675;-40
2021/04/23 02:52:30;;;;;;;15.23;9.35;;;6.40;99.90;;;;;;5029652;28;20220;-39
2021/04/23 02:54:57;;;;;;;11.18;7.60;;;6.40;99.90;;;;;;5029853;28;20675;-39
2021/04/23 02:57:24;;;;;;;14.75;8.77;;;6.30;99.90;;;;;;5029868;28;20665;-41
2021/04/23 02:59:50;;;;;;;17.05;8.50;;;6.40;99.90;;;;;;5029619;28;20228;-37
2021/04/23 03:02:18;;;;;;;15.70;8.88;;;6.40;99.90;;;;;;5029446;28;20231;-37
2021/04/23 03:04:45;;;;;;;13.02;7.07;;;6.30;99.90;;;;;;5029616;28;20192;-39
2021/04/23 03:07:12;;;;;;;15.60;8.73;;;6.30;99.90;;;;;;5029197;28;20279;-36
2021/04/23 03:09:39;;;;;;;17.42;9.13;;;6.30;99.90;;;;;;5028560;28;20188;-39
2021/04/23 03:12:07;;;;;;;13.38;9.25;;;6.20;99.90;;;;;;5029238;28;20223;-35
2021/04/23 03:14:34;;;;;;;15.98;8.65;;;6.10;99.90;;;;;;5028965;28;20275;-38
2021/04/23 03:17:00;;;;;;;15.85;8.93;;;6.00;99.90;;;;;;5029457;28;20270;-37
2021/04/23 03:19:28;;;;;;;18.90;7.88;;;5.90;99.90;;;;;;5027997;28;20208;-38
2021/04/23 03:21:54;;;;;;;13.93;8.60;;;6.10;99.90;;;;;;5026599;28;20218;-36
2021/04/23 03:24:22;;;;;;;20.80;8.48;;;6.10;99.90;;;;;;5029598;28;20192;-36
2021/04/23 03:26:49;;;;;;;13.55;8.65;;;6.00;99.90;;;;;;5029271;28;20302;-39
2021/04/23 03:29:17;;;;;;;13.88;8.02;;;6.00;99.90;;;;;;5028706;28;20566;-37
2021/04/23 03:31:44;;;;;;;14.35;8.07;;;6.10;99.90;;;;;;5027400;28;20306;-39
2021/04/23 03:34:11;;;;;;;11.35;7.85;;;6.00;99.90;;;;;;5029576;28;20291;-37
2021/04/23 03:36:38;;;;;;;15.43;8.02;;;6.10;99.90;;;;;;5028980;28;20687;-37
2021/04/23 03:39:08;;;;;;;20.02;8.45;;;6.20;99.90;;;;;;5029249;28;20300;-37
2021/04/23 03:41:35;;;;;;;11.18;7.00;;;6.20;99.90;;;;;;5028854;28;20191;-36
2021/04/23 03:44:03;;;;;;;13.98;7.90;;;6.20;99.90;;;;;;5029119;28;20302;-38
2021/04/23 03:46:31;;;;;;;13.88;7.30;;;6.30;99.90;;;;;;5029375;28;20204;-36
2021/04/23 03:48:58;;;;;;;17.85;7.95;;;6.30;99.90;;;;;;5028852;28;20192;-38
2021/04/23 03:51:27;;;;;;;18.27;9.13;;;6.30;99.90;;;;;;5029234;28;20228;-36
2021/04/23 03:53:54;;;;;;;14.80;8.52;;;6.30;99.90;;;;;;5029270;28;20283;-36
2021/04/23 03:56:22;;;;;;;11.35;7.63;;;6.20;99.90;;;;;;5029543;28;20242;-38
2021/04/23 03:58:49;;;;;;;14.23;8.10;;;6.20;99.90;;;;;;5028657;28;20200;-39
2021/04/23 04:01:19;;;;;;;10.95;7.57;;;6.30;99.90;;;;;;5028895;28;20250;-37
2021/04/23 04:03:47;;;;;;;13.82;8.35;;;6.30;99.90;;;;;;5056601;22;20227;-36
2021/04/23 04:06:14;;;;;;;11.95;7.72;;;6.20;99.90;;;;;;5029595;28;20691;-37
2021/04/23 04:08:42;;;;;;;19.95;8.70;;;6.20;99.90;;;;;;5028670;28;20219;-36
2021/04/23 04:11:09;;;;;;;13.55;7.85;;;6.20;99.90;;;;;;5029319;28;20207;-36
2021/04/23 04:13:36;;;;;;;14.40;7.53;;;6.10;99.90;;;;;;5029086;28;20212;-36
2021/04/23 04:16:04;;;;;;;12.20;7.88;;;6.20;99.90;;;;;;5029614;28;20202;-36
2021/04/23 04:18:32;;;;;;;13.70;7.68;;;6.20;99.90;;;;;;5028835;28;20197;-35
2021/04/23 04:21:00;;;;;;;14.85;7.57;;;6.10;99.90;;;;;;5030148;28;20226;-36
2021/04/23 04:23:26;;;;;;;13.13;8.25;;;6.00;99.90;;;;;;5032336;28;20271;-35
2021/04/23 04:25:56;;;;;;;13.85;8.57;;;6.10;99.90;;;;;;5031685;28;20204;-34
2021/04/23 04:28:26;;;;;;;13.52;7.60;;;6.20;99.90;;;;;;5024084;28;20265;-35
2021/04/23 04:30:53;;;;;;;10.15;7.43;;;6.30;99.90;;;;;;5032575;28;20258;-36
2021/04/23 04:33:20;;;;;;;17.38;9.00;;;6.30;99.90;;;;;;5032532;28;20279;-35
2021/04/23 04:35:48;;;;;;;16.00;8.63;;;6.30;99.90;;;;;;5033051;28;20718;-36
2021/04/23 04:38:15;;;;;;;18.77;7.53;;;6.50;99.90;;;;;;5030948;28;20284;-35
2021/04/23 04:40:45;;;;;;;11.90;7.68;;;6.40;99.90;;;;;;5032447;28;20203;-36
2021/04/23 04:43:14;;;;;;;11.80;7.80;;;6.40;99.90;;;;;;5032164;28;20184;-35
2021/04/23 04:45:43;;;;;;;11.45;7.05;;;6.30;99.90;;;;;;5032553;28;20196;-38
2021/04/23 04:48:11;;;;;;;14.07;6.78;;;6.40;99.90;;;;;;5031551;28;20249;-37
2021/04/23 04:50:41;;;;;;;13.10;6.45;;;6.50;99.90;;;;;;5032465;28;20188;-36
2021/04/23 04:53:10;;;;;;;13.90;7.70;;;6.40;99.90;;;;;;5032624;28;20751;-37
2021/04/23 04:55:41;;;;;;;14.45;7.70;;;6.40;99.90;;;;;;5032132;28;20202;-35
2021/04/23 04:58:10;;;;;;;15.95;8.20;;;6.40;99.90;;;;;;5030370;28;20189;-38
2021/04/23 05:00:39;;;;;;;11.82;7.32;;;6.40;99.90;;;;;;5032049;28;20244;-36
2021/04/23 05:03:07;;;;;;;14.27;7.10;;;6.40;99.90;;;;;;5031688;28;20196;-37
2021/04/23 05:09:47;;;;;;;18.63;7.22;;;6.60;99.90;;;;;;5026710;28;20195;-37
2021/04/23 05:12:14;;;;;;;14.00;6.82;;;6.60;99.90;;;;;;5028895;28;20577;-38
2021/04/23 05:14:41;;;;;;;12.88;8.82;;;6.60;99.90;;;;;;5031986;28;20219;-38
2021/04/23 05:17:08;;;;;;;14.25;7.35;;;6.50;99.90;;;;;;5032117;28;20205;-36
2021/04/23 05:19:35;;;;;;;16.70;8.27;;;6.50;99.90;;;;;;5031867;28;20219;-36
2021/04/23 05:22:02;;;;;;;23.65;9.07;;;6.60;99.90;;;;;;5028212;28;20599;-37
2021/04/23 05:24:29;;;;;;;10.73;7.07;;;6.60;99.90;;;;;;5031817;28;20678;-36
2021/04/23 05:26:57;;;;;;;14.85;7.18;;;6.70;99.90;;;;;;5032126;28;20196;-36
2021/04/23 05:29:23;;;;;;;12.05;8.38;;;6.60;99.90;;;;;;5031678;28;20509;-35
2021/04/23 05:31:50;;;;;;;15.38;7.70;;;6.60;99.90;;;;;;5031144;28;20695;-36
2021/04/23 05:34:17;;;;;;;15.43;7.90;;;6.70;99.90;;;;;;5031684;28;20247;-36
2021/04/23 05:36:46;;;;;;;12.02;7.25;;;6.70;99.90;;;;;;5031757;28;20192;-35
2021/04/23 05:39:14;;;;;;;12.18;7.28;;;6.80;99.90;;;;;;5030888;28;20195;-36
2021/04/23 05:41:41;;;;;;;16.38;7.18;;;6.80;99.90;;;;;;5031480;28;20198;-35
2021/04/23 05:44:09;;;;;;;17.30;8.77;;;6.60;99.90;;;;;;5030174;28;20242;-35
2021/04/23 05:46:36;;;;;;;11.90;7.40;;;6.60;99.90;;;;;;5031543;28;20246;-36
2021/04/23 05:49:03;;;;;;;9.63;7.38;;;6.60;99.90;;;;;;5031091;28;20279;-35
2021/04/23 05:51:30;;;;;;;12.68;7.50;;;6.70;99.90;;;;;;5031057;28;20208;-36
2021/04/23 05:53:59;;;;;;;13.15;8.25;;;6.70;99.90;;;;;;5031380;28;20227;-36
2021/04/23 05:56:26;;;;;;;10.82;7.38;;;6.70;99.90;;;;;;5031008;28;20198;-36
2021/04/23 05:58:54;;;;;;;14.23;7.70;;;6.60;99.90;;;;;;5027867;28;20467;-37
2021/04/23 06:01:21;;;;;;;14.55;6.75;;;6.60;99.90;;;;;;5022866;28;20593;-36
2021/04/23 06:03:49;;;;;;;12.60;7.28;;;6.60;99.90;;;;;;5027794;28;20262;-35
2021/04/23 06:06:16;;;;;;;13.98;7.53;;;6.70;99.90;;;;;;5030259;28;20206;-35
2021/04/23 06:08:43;;;;;;;10.27;7.05;;;6.80;99.90;;;;;;5030935;28;20577;-35
2021/04/23 06:11:15;;;;;;;12.60;7.80;;;7.00;99.90;;;;;;5031335;28;20192;-37
2021/04/23 06:13:42;;;;;;;16.35;8.18;;;7.10;99.90;;;;;;5030923;28;20742;-36
2021/04/23 06:16:09;;;;;;;14.80;7.75;;;7.20;99.90;;;;;;5028146;28;20200;-35
2021/04/23 06:18:36;;;;;;;16.90;8.13;;;7.20;99.90;;;;;;5026494;28;20668;-36
2021/04/23 06:21:03;;;;;;;13.50;8.05;;;7.20;99.90;;;;;;5029546;28;20707;-35
2021/04/23 06:23:30;;;;;;;10.93;7.07;;;7.20;99.90;;;;;;5030385;28;20219;-35
2021/04/23 06:25:57;;;;;;;15.13;7.63;;;7.40;99.90;;;;;;5024600;28;20199;-35
2021/04/23 06:28:24;;;;;;;13.05;7.40;;;7.60;99.90;;;;;;5029412;28;20203;-37
2021/04/23 06:30:51;;;;;;;15.43;7.90;;;7.50;99.90;;;;;;5030889;28;20218;-35
2021/04/23 06:33:20;;;;;;;10.82;6.97;;;7.60;99.90;;;;;;5026369;28;20574;-38
2021/04/23 06:35:47;;;;;;;11.52;8.38;;;7.50;99.90;;;;;;5028931;28;20192;-36
2021/04/23 06:38:14;;;;;;;16.27;8.52;;;7.40;99.90;;;;;;5027630;28;20207;-36
2021/04/23 06:40:40;;;;;;;8.82;6.35;;;7.60;99.90;;;;;;5015407;28;20217;-35
2021/04/23 06:43:08;;;;;;;12.82;7.03;;;7.70;99.90;;;;;;5012903;28;20200;-36
2021/04/23 06:45:36;;;;;;;11.32;6.78;;;7.60;99.90;;;;;;5030481;28;20757;-37
2021/04/23 06:48:03;;;;;;;14.00;7.63;;;7.80;99.90;;;;;;5030604;28;20196;-37
2021/04/23 06:50:30;;;;;;;12.07;7.25;;;7.90;99.90;;;;;;5026778;28;20184;-36
2021/04/23 06:52:57;;;;;;;15.18;6.90;;;8.00;99.90;;;;;;5030452;28;20196;-38
2021/04/23 06:55:24;;;;;;;13.02;7.57;;;8.10;99.90;;;;;;5020020;28;20230;-38
2021/04/23 06:57:51;;;;;;;10.45;6.93;;;8.30;99.90;;;;;;5029541;28;20203;-37
2021/04/23 07:00:21;;;;;;;15.40;7.13;;;8.10;99.90;;;;;;5029640;28;20784;-37
2021/04/23 07:02:49;;;;;;;14.88;7.05;;;8.20;99.90;;;;;;5029487;28;20200;-38
2021/04/23 07:05:17;;;;;;;10.73;6.22;;;8.30;99.90;;;;;;5029657;28;20228;-36
2021/04/23 07:07:44;;;;;;;13.05;6.47;;;8.30;99.90;;;;;;5029713;28;20196;-37
2021/04/23 07:10:13;;;;;;;13.82;7.25;;;8.60;99.90;;;;;;5020268;28;20207;-36
2021/04/23 07:12:41;;;;;;;11.65;7.22;;;8.70;99.90;;;;;;5019658;28;20707;-36
2021/04/23 07:15:10;;;;;;;10.95;6.95;;;8.80;99.90;;;;;;5023579;28;20228;-36
2021/04/23 07:17:37;;;;;;;10.07;6.07;;;8.50;99.90;;;;;;5029678;28;20199;-36
2021/04/23 07:20:06;;;;;;;13.73;5.63;;;8.40;99.90;;;;;;5029059;28;20212;-37
2021/04/23 07:22:33;;;;;;;11.32;6.80;;;8.70;99.90;;;;;;5030105;28;20536;-37
2021/04/23 07:25:00;;;;;;;11.18;6.47;;;8.80;99.90;;;;;;5029723;28;20216;-37
2021/04/23 07:27:27;;;;;;;14.07;6.75;;;8.80;99.90;;;;;;5029615;28;20552;-37
2021/04/23 07:29:54;;;;;;;12.38;5.72;;;8.80;99.90;;;;;;5029653;28;20203;-36
2021/04/23 07:32:20;;;;;;;16.63;6.50;;;8.70;99.90;;;;;;5028242;28;20652;-36
2021/04/23 07:34:47;;;;;;;11.25;6.70;;;8.50;99.90;;;;;;5028903;28;20219;-35
2021/04/23 07:37:14;;;;;;;14.15;6.75;;;8.40;99.90;;;;;;5027471;28;20690;-37
2021/04/23 07:39:41;;;;;;;14.80;7.03;;;8.40;99.90;;;;;;5029249;28;20712;-35
2021/04/23 07:42:08;;;;;;;16.17;7.53;;;8.00;99.90;;;;;;5029629;28;20203;-36
2021/04/23 07:44:34;;;;;;;9.35;6.68;;;8.20;99.90;;;;;;5028782;28;20212;-36
2021/04/23 07:47:01;;;;;;;14.80;6.80;;;8.30;99.90;;;;;;5026580;28;20192;-36
2021/04/23 07:49:28;;;;;;;14.43;7.07;;;8.30;99.90;;;;;;5021130;28;20676;-36
2021/04/23 07:51:54;;;;;;;9.73;6.35;;;8.50;99.90;;;;;;5013907;28;20261;-37
2021/04/23 07:54:22;;;;;;;14.82;7.70;;;8.80;99.90;;;;;;5028835;28;20220;-36
2021/04/23 07:56:49;;;;;;;21.35;12.35;;;9.20;99.90;;;;;;5031875;28;20250;-35
2021/04/23 07:59:16;;;;;;;12.65;7.88;;;9.30;99.90;;;;;;5033159;28;20269;-36
2021/04/23 08:01:42;;;;;;;12.55;6.95;;;9.50;99.90;;;;;;5032576;28;20192;-36
2021/04/23 08:04:09;;;;;;;15.23;7.53;;;9.50;99.90;;;;;;5031822;28;20297;-36
2021/04/23 08:06:36;;;;;;;9.02;5.80;;;9.40;99.90;;;;;;5033134;28;20618;-36
2021/04/23 08:09:04;;;;;;;11.82;6.75;;;9.50;99.90;;;;;;5032951;28;20204;-35
2021/04/23 08:11:31;;;;;;;9.23;6.22;;;9.40;99.90;;;;;;5032710;28;20199;-36
2021/04/23 08:13:58;;;;;;;7.00;5.78;;;9.20;99.90;;;;;;5032533;28;20211;-36
2021/04/23 08:16:25;;;;;;;11.82;5.25;;;9.10;99.90;;;;;;5032598;28;20269;-36
2021/04/23 08:18:53;;;;;;;9.68;5.43;;;8.90;99.90;;;;;;5029575;28;20227;-37
2021/04/23 08:21:21;;;;;;;9.15;5.28;;;9.00;99.90;;;;;;5033077;28;20306;-35
2021/04/23 08:23:48;;;;;;;16.33;6.38;;;9.20;99.90;;;;;;5032776;28;20747;-35
2021/04/23 08:26:15;;;;;;;10.48;6.82;;;9.50;99.90;;;;;;5033123;28;20254;-36
2021/04/23 08:28:43;;;;;;;7.70;5.22;;;9.60;99.90;;;;;;5032871;28;20227;-35
2021/04/23 08:31:10;;;;;;;13.18;6.00;;;9.80;99.90;;;;;;5033206;28;20203;-36
2021/04/23 08:33:38;;;;;;;9.23;5.20;;;10.00;99.90;;;;;;5032939;28;20681;-36
2021/04/23 08:36:06;;;;;;;6.07;4.57;;;10.30;99.90;;;;;;5033129;28;20208;-35
2021/04/23 08:38:32;;;;;;;13.50;6.15;;;10.20;99.90;;;;;;5033144;28;20220;-35
2021/04/23 08:40:59;;;;;;;11.35;5.90;;;9.90;99.90;;;;;;5032963;28;20233;-36
2021/04/23 08:43:26;;;;;;;11.60;4.90;;;9.50;99.90;;;;;;5032743;28;20204;-36
2021/04/23 08:45:55;;;;;;;12.85;5.30;;;9.70;99.90;;;;;;5033039;28;20231;-37
2021/04/23 08:48:22;;;;;;;24.15;11.65;;;9.50;99.90;;;;;;5032575;28;20618;-44
2021/04/23 08:50:49;;;;;;;17.55;10.75;;;9.90;99.90;;;;;;5025250;28;20192;-37
2021/04/23 08:53:17;;;;;;;17.30;7.28;;;9.90;99.90;;;;;;5021540;28;20545;-37
2021/04/23 08:55:44;;;;;;;12.20;6.45;;;10.10;99.90;;;;;;5022360;28;20212;-37
2021/04/23 08:58:12;;;;;;;11.27;5.35;;;9.90;99.90;;;;;;5022182;28;20189;-36
2021/04/23 09:00:39;;;;;;;9.60;5.25;;;10.10;99.90;;;;;;5022120;28;20205;-35
2021/04/23 09:03:09;;;;;;;6.88;5.00;;;10.10;99.90;;;;;;5020975;28;20561;-36
2021/04/23 09:05:36;;;;;;;8.45;5.85;;;10.00;99.90;;;;;;5021665;28;20787;-37
2021/04/23 09:08:05;;;;;;;9.70;5.53;;;10.10;99.90;;;;;;5022456;28;20207;-35
2021/04/23 09:10:32;;;;;;;9.93;5.38;;;10.20;99.90;;;;;;5021748;28;20201;-35
2021/04/23 09:13:15;;;;;;;11.05;6.15;;;10.10;99.90;;;;;;5023300;28;20208;-35
2021/04/23 09:15:44;;;;;;;13.18;6.97;;;10.30;99.90;;;;;;5023280;28;20559;-36
2021/04/23 09:18:13;;;;;;;8.05;5.47;;;10.30;99.90;;;;;;5021180;28;20242;-35
2021/04/23 09:20:42;;;;;;;7.25;5.55;;;10.60;99.90;;;;;;5020007;28;21332;-36
2021/04/23 09:23:12;;;;;;;8.07;4.90;;;10.50;99.90;;;;;;5020898;28;20201;-35
2021/04/23 09:25:44;;;;;;;10.43;6.45;;;10.40;99.90;;;;;;5020939;28;20587;-35
2021/04/23 09:28:11;;;;;;;8.77;5.15;;;10.30;99.90;;;;;;5020623;28;20271;-36
2021/04/23 09:30:38;;;;;;;11.23;5.75;;;10.20;99.90;;;;;;5022834;28;20188;-34
2021/04/23 09:33:23;;;;;;;10.98;5.80;;;10.30;99.90;;;;;;5025989;28;20199;-36
2021/04/23 09:35:50;;;;;;;6.97;5.13;;;10.20;99.90;;;;;;5023640;28;20246;-35
2021/04/23 09:38:17;;;;;;;10.73;5.28;;;10.50;99.90;;;;;;5021713;28;20219;-37
2021/04/23 09:40:43;;;;;;;10.85;5.72;;;10.90;99.90;;;;;;5029237;28;20211;-37
2021/04/23 09:43:10;;;;;;;10.68;5.93;;;11.30;99.90;;;;;;5025759;28;20200;-36
2021/04/23 09:45:50;;;;;;;9.13;5.15;;;11.40;99.90;;;;;;5024496;28;20216;-34
2021/04/23 09:48:22;;;;;;;13.25;5.18;;;10.90;99.90;;;;;;5026909;28;20200;-36
2021/04/23 09:50:51;;;;;;;12.48;6.15;;;10.80;99.90;;;;;;5028307;28;20267;-35
2021/04/23 09:53:18;;;;;;;7.78;4.93;;;10.80;99.90;;;;;;5029340;28;20207;-36
2021/04/23 09:55:44;;;;;;;8.75;5.65;;;11.00;99.90;;;;;;5024795;28;20203;-36
2021/04/23 09:58:17;;;;;;;9.50;4.72;;;11.00;99.90;;;;;;5027649;28;20562;-36
2021/04/23 10:00:45;;;;;;;11.73;5.70;;;11.20;99.90;;;;;;5026563;28;20219;-37
2021/04/23 10:03:12;;;;;;;9.80;5.53;;;11.70;99.90;;;;;;5030791;28;20733;-36
2021/04/23 10:05:40;;;;;;;7.80;5.43;;;12.20;99.90;;;;;;5026898;28;20212;-36
2021/04/23 10:08:10;;;;;;;8.45;6.60;;;12.30;99.90;;;;;;5012513;28;20331;-35
2021/04/23 10:10:50;;;;;;;14.60;5.57;;;12.40;99.90;;;;;;5031195;28;20275;-35
2021/04/23 10:13:16;;;;;;;8.70;5.07;;;12.40;99.90;;;;;;5030353;28;20576;-35
2021/04/23 10:15:44;;;;;;;10.25;5.15;;;12.30;99.90;;;;;;5026143;28;20208;-35
2021/04/23 10:18:13;;;;;;;9.27;5.80;;;11.90;99.90;;;;;;5023778;22;20323;-33
2021/04/23 10:20:41;;;;;;;11.05;6.85;;;11.70;99.90;;;;;;5010178;28;20248;-35
2021/04/23 10:23:13;;;;;;;6.90;4.50;;;11.90;99.90;;;;;;5010639;28;20205;-33
2021/04/23 10:25:41;;;;;;;8.63;5.50;;;12.10;99.90;;;;;;5005668;28;20197;-36
2021/04/23 10:28:10;;;;;;;8.27;5.60;;;12.20;99.90;;;;;;5003414;28;20317;-37
2021/04/23 10:30:39;;;;;;;10.70;5.78;;;12.90;99.90;;;;;;5000439;28;20216;-34
2021/04/23 10:33:09;;;;;;;6.80;4.38;;;13.10;99.90;;;;;;4998571;28;20201;-36
2021/04/23 10:35:38;;;;;;;8.45;4.53;;;13.00;99.90;;;;;;4996167;28;20209;-33
2021/04/23 10:38:06;;;;;;;10.27;5.88;;;13.00;99.90;;;;;;4998780;28;20507;-34
2021/04/23 10:40:35;;;;;;;11.20;5.90;;;12.70;99.90;;;;;;5003725;28;20307;-35
2021/04/23 10:43:08;;;;;;;13.65;5.78;;;12.40;99.90;;;;;;4996101;28;20193;-33
2021/04/23 10:45:39;;;;;;;12.30;6.40;;;11.90;99.90;;;;;;4988025;28;20193;-35
2021/04/23 10:48:32;;;;;;;9.48;5.25;;;12.20;99.90;;;;;;4989434;28;20217;-33
2021/04/23 10:51:01;;;;;;;10.35;5.60;;;12.20;99.90;;;;;;4991169;28;20212;-33
2021/04/23 10:53:45;;;;;;;10.38;5.82;;;11.80;99.90;;;;;;4999185;28;20313;-33
2021/04/23 10:56:26;;;;;;;13.82;6.93;;;12.10;99.90;;;;;;4983961;28;20714;-34
2021/04/23 10:58:53;;;;;;;13.18;6.57;;;12.50;99.90;;;;;;4984419;28;20216;-34
2021/04/23 11:01:32;;;;;;;12.00;5.53;;;12.90;99.90;;;;;;4993759;28;20216;-33
2021/04/23 11:04:05;;;;;;;12.70;5.25;;;12.90;99.90;;;;;;4999395;28;20230;-34
2021/04/23 11:06:34;;;;;;;19.58;10.63;;;12.60;99.90;;;;;;4986909;28;20201;-35
2021/04/23 11:09:22;;;;;;;9.65;7.25;;;12.50;99.90;;;;;;4993528;28;20216;-36
2021/04/23 11:12:13;;;;;;;10.75;7.13;;;12.80;99.90;;;;;;4997361;28;20196;-35
2021/04/23 11:14:42;;;;;;;6.82;4.57;;;13.00;99.90;;;;;;4995907;28;20197;-35
2021/04/23 11:17:33;;;;;;;7.35;5.05;;;13.30;99.90;;;;;;4991256;28;20228;-35
2021/04/23 11:20:21;;;;;;;10.57;6.63;;;13.10;99.90;;;;;;4995831;28;20227;-36
2021/04/23 11:31:09;;;;;;;11.65;6.30;;;13.20;99.90;;;;;;4994573;28;20188;-36
2021/04/23 11:34:00;;;;;;;11.13;6.25;;;13.00;99.90;;;;;;4991840;28;20212;-34
2021/04/23 11:36:34;;;;;;;13.32;5.20;;;13.10;99.90;;;;;;4998542;28;20197;-33
2021/04/23 11:39:05;;;;;;;7.72;5.15;;;13.40;99.90;;;;;;5000903;28;20204;-33
2021/04/23 11:41:32;;;;;;;9.00;5.18;;;13.80;99.90;;;;;;5001658;28;20221;-35
2021/04/23 11:43:59;;;;;;;12.07;6.15;;;13.90;99.90;;;;;;5005011;28;20200;-34
2021/04/23 11:46:48;;;;;;;8.88;4.80;;;13.90;99.90;;;;;;5004589;28;20231;-34
2021/04/23 11:49:15;;;;;;;7.10;5.30;;;13.90;99.90;;;;;;5001684;28;20202;-34
2021/04/23 11:51:52;;;;;;;9.85;5.65;;;14.80;99.90;;;;;;4998233;28;20568;-33
2021/04/23 11:54:39;;;;;;;8.65;4.85;;;15.20;99.90;;;;;;4998933;28;20318;-33
2021/04/23 11:57:08;;;;;;;10.32;5.55;;;15.00;99.90;;;;;;5001429;28;20527;-33
2021/04/23 11:59:36;;;;;;;9.55;5.05;;;14.90;99.90;;;;;;4998352;28;20197;-35
2021/04/23 12:02:04;;;;;;;10.60;4.72;;;14.80;99.90;;;;;;5005240;28;20553;-34
2021/04/23 12:04:46;;;;;;;9.15;5.10;;;13.90;99.90;;;;;;5000833;28;20637;-32
2021/04/23 12:07:15;;;;;;;8.38;5.43;;;14.20;99.90;;;;;;5003027;28;20208;-33
2021/04/23 12:09:42;;;;;;;20.55;8.38;;;14.10;99.90;;;;;;4999146;28;20260;-33
2021/04/23 12:12:11;;;;;;;8.70;5.97;;;14.20;99.90;;;;;;5003010;28;20212;-33
2021/04/23 12:14:46;;;;;;;14.02;8.32;;;14.10;99.90;;;;;;4994537;28;20546;-33
2021/04/23 12:17:14;;;;;;;15.38;6.65;;;14.10;99.90;;;;;;5003312;28;20331;-33
2021/04/23 12:19:41;;;;;;;8.68;5.85;;;14.10;99.90;;;;;;4999269;28;20599;-33
2021/04/23 12:22:09;;;;;;;9.00;5.57;;;14.40;99.90;;;;;;5003298;28;20685;-35
2021/04/23 12:24:35;;;;;;;13.02;6.55;;;14.90;99.90;;;;;;5002758;28;20551;-34
2021/04/23 12:27:03;;;;;;;9.23;5.70;;;15.00;99.90;;;;;;5001146;28;20270;-33
2021/04/23 12:29:30;;;;;;;10.00;5.90;;;15.70;99.90;;;;;;4995202;28;20272;-34
2021/04/23 12:31:56;;;;;;;14.13;7.32;;;16.00;99.90;;;;;;4995705;28;20212;-34
2021/04/23 12:34:24;;;;;;;6.90;5.22;;;16.50;99.90;;;;;;4999852;28;20200;-33
2021/04/23 12:36:52;;;;;;;10.95;5.43;;;15.50;99.90;;;;;;5001668;28;20217;-33
2021/04/23 12:39:34;;;;;;;9.32;5.05;;;15.00;99.90;;;;;;5000584;28;20568;-34
2021/04/23 12:42:03;;;;;;;8.68;5.32;;;15.10;99.90;;;;;;4992462;28;20357;-33
2021/04/23 12:44:31;;;;;;;9.88;5.00;;;15.50;99.90;;;;;;4993874;28;20194;-33
2021/04/23 12:46:59;;;;;;;8.95;4.35;;;15.50;99.90;;;;;;4993556;28;20276;-33
2021/04/23 12:49:29;;;;;;;9.35;5.10;;;15.40;99.90;;;;;;4992800;28;20205;-36
2021/04/23 12:51:59;;;;;;;8.68;5.90;;;15.40;99.90;;;;;;4992508;28;20194;-35
2021/04/23 12:54:30;;;;;;;8.43;5.80;;;15.60;99.90;;;;;;4993067;28;20212;-34
2021/04/23 12:56:59;;;;;;;6.65;5.25;;;15.30;99.90;;;;;;4993214;28;20221;-34
2021/04/23 12:59:38;;;;;;;12.35;4.57;;;15.40;99.90;;;;;;4993104;28;20272;-34
2021/04/23 13:02:05;;;;;;;11.20;5.63;;;15.30;99.90;;;;;;4992093;28;20244;-35
2021/04/23 13:04:33;;;;;;;10.63;4.15;;;15.20;99.90;;;;;;4993320;28;20193;-34
2021/04/23 13:07:09;;;;;;;8.98;4.75;;;15.60;99.90;;;;;;4992701;28;20267;-35